首页
METAR-TAF:

METAR-TAF

机场 :

薩圖馬雷, 罗马尼亚

纬度: 47-48N, 经度: 022-53E, 海拔: 123米

当前天气观测

该预报发布于36分钟前的08:30 UTC
风速6节,风向北转东北,在北转西北东北之间变化
温度 17°C
湿度 72%
气压 1013 hPa
能见度10公里或以上
散云层高于2000英尺

METAR: LRSM 010830Z 02006KT 340V040 9999 SCT020 17/12 Q1013

时间: 12:06 (09:06 UTC)

预报

该预报发布于1小时和6分钟前的08:00 UTC
预报有效从01日的 09点(UTC)到 01日的 18点(UTC)
风速12节,风向
能见度10公里或以上
散云层高于3000英尺
短暂存在
从 01日的 11点(UTC)到 01日的 16点(UTC)
风速15节,风向,有时为25节阵风
少量云层高于3000英尺, 积雨云.
多云层高于3500英尺

TAF: LRSM 010800Z 0109/0118 01012KT 9999 SCT030 TEMPO 0111/0116 35015G25KT FEW030CB BKN035

超过4000个机场的气象观测和天气预报(METAR&TAF报告)。

可查询的气象台以黄色和红色小点在地图上表示。

将鼠标移到小点上方,可查看气象台名称。

然后点击查看天气观测和预报。

如需切换地图:点击带黑十字的绿色按钮放大地图;点击带横线的绿色按钮缩小地图;或者点击绿色箭头查看邻近地区的地图。


METAR-TAF: